Avon, Ohio
Current Conditions -  °F | °C
As of 8:51 AM on Monday 20 Oct 2014 (Local Time) from KCLE Reporting Station
Overcast Overcast  
Wind Chill: 42°   Ceiling: 15000
Heat Index: 48°   Visibility: 10mi
Dew Point: 39°   Wind: 14mph
Humidity: 71%   Direction: 200°SSW
Pressure: 29.96"   Gusts: NA
Location:  41.47°N, 82.02°W
Report Text: KCLE 201251Z 20012KT 10SM SCT100 OVC150 09/04 A2996 RMK AO2 SLP148 T00890039
Loading
Personal Weather Stations






























Interactive Weather Map
Tropical Storm Tracking
New forecast layout! Learn more

10-Day Weather Forecast

Advertisements
Track Severe Weather on mobile